RYR7FV LIRA-EPMO
Flight info
| Callsign | RYR7FV |
|---|---|
| Flight time | 2h 16m |
| Altitude | 34000 |
| Route | PEMAR DCT IBENI/N0443F350 DCT ALIVO DCT NAVTI DCT DESEN DCT GOGUS |
| Aircraft | B738/M-SDE2E3FGHIRWXY/LB1 |
Departure
| Time | 2026-04-23 11:58 |
|---|---|
| Airport | Ciampino–G. B. Pastine International Airport (LIRA) |
Arrival
| Time | 2026-04-23 14:14 |
|---|---|
| Airport | Warsaw Modlin Airport (EPMO) |
| Time | Latitude | Longitude | Altitude | Speed | Heading |
|---|---|---|---|---|---|
| 2026-04-23 11:46 | 41.80051 | 12.59086 | 380 ft | 0 kts | 284° |
| 2026-04-23 11:52 | 41.80047 | 12.59103 | 380 ft | 1 kts | 268° |
| 2026-04-23 11:53 | 41.80051 | 12.59119 | 381 ft | 3 kts | 242° |
| 2026-04-23 11:53 | 41.80060 | 12.59141 | 381 ft | 3 kts | 243° |
| 2026-04-23 11:53 | 41.80069 | 12.59164 | 382 ft | 3 kts | 242° |
| 2026-04-23 11:53 | 41.80073 | 12.59177 | 382 ft | 1 kts | 279° |
| 2026-04-23 11:54 | 41.80070 | 12.59187 | 383 ft | 1 kts | 320° |
| 2026-04-23 11:54 | 41.80063 | 12.59194 | 383 ft | 1 kts | 330° |
| 2026-04-23 11:54 | 41.80056 | 12.59199 | 383 ft | 0 kts | 334° |
| 2026-04-23 11:54 | 41.80061 | 12.59196 | 383 ft | 2 kts | 333° |
| 2026-04-23 11:55 | 41.80090 | 12.59174 | 382 ft | 7 kts | 332° |
| 2026-04-23 11:55 | 41.80154 | 12.59129 | 379 ft | 14 kts | 332° |
| 2026-04-23 11:55 | 41.80261 | 12.59055 | 371 ft | 20 kts | 333° |
| 2026-04-23 11:55 | 41.80392 | 12.58966 | 370 ft | 21 kts | 333° |
| 2026-04-23 11:56 | 41.80520 | 12.58878 | 362 ft | 20 kts | 333° |
| 2026-04-23 11:56 | 41.80642 | 12.58793 | 363 ft | 16 kts | 333° |
| 2026-04-23 11:56 | 41.80718 | 12.58763 | 354 ft | 10 kts | 16° |
| 2026-04-23 11:56 | 41.80756 | 12.58837 | 360 ft | 10 kts | 66° |
| 2026-04-23 11:57 | 41.80752 | 12.58921 | 364 ft | 10 kts | 136° |
| 2026-04-23 11:57 | 41.80729 | 12.58940 | 361 ft | 0 kts | 152° |
| 2026-04-23 11:57 | 41.80570 | 12.59049 | 369 ft | 64 kts | 153° |
| 2026-04-23 11:57 | 41.79943 | 12.59478 | 395 ft | 135 kts | 153° |
| 2026-04-23 11:58 | 41.78947 | 12.60143 | 698 ft | 169 kts | 154° |
| 2026-04-23 11:58 | 41.77810 | 12.60638 | 1521 ft | 174 kts | 180° |
| 2026-04-23 11:58 | 41.76609 | 12.60267 | 2219 ft | 184 kts | 200° |
| 2026-04-23 11:58 | 41.75454 | 12.59514 | 2933 ft | 184 kts | 214° |
| 2026-04-23 11:59 | 41.74517 | 12.58332 | 3534 ft | 190 kts | 236° |
| 2026-04-23 11:59 | 41.73945 | 12.56735 | 4160 ft | 196 kts | 252° |
| 2026-04-23 11:59 | 41.73464 | 12.54884 | 4473 ft | 217 kts | 252° |
| 2026-04-23 11:59 | 41.72954 | 12.52936 | 4800 ft | 232 kts | 251° |
| 2026-04-23 12:00 | 41.72409 | 12.50846 | 5326 ft | 236 kts | 251° |
| 2026-04-23 12:00 | 41.71657 | 12.48948 | 6009 ft | 235 kts | 231° |
| 2026-04-23 12:00 | 41.70453 | 12.47351 | 6336 ft | 254 kts | 220° |
| 2026-04-23 12:00 | 41.69049 | 12.45793 | 6785 ft | 268 kts | 219° |
| 2026-04-23 12:01 | 41.67549 | 12.44264 | 7485 ft | 273 kts | 208° |
| 2026-04-23 12:01 | 41.65738 | 12.43598 | 8028 ft | 271 kts | 178° |
| 2026-04-23 12:01 | 41.63920 | 12.44180 | 8120 ft | 273 kts | 148° |
| 2026-04-23 12:01 | 41.62519 | 12.45842 | 8127 ft | 269 kts | 121° |
| 2026-04-23 12:02 | 41.61860 | 12.48116 | 8130 ft | 261 kts | 94° |
| 2026-04-23 12:02 | 41.62022 | 12.50497 | 8132 ft | 257 kts | 70° |
| 2026-04-23 12:02 | 41.62836 | 12.52588 | 8130 ft | 254 kts | 53° |
| 2026-04-23 12:02 | 41.63921 | 12.54466 | 8131 ft | 255 kts | 51° |
| 2026-04-23 12:03 | 41.65021 | 12.56293 | 8133 ft | 256 kts | 51° |
| 2026-04-23 12:03 | 41.66144 | 12.58183 | 8133 ft | 257 kts | 51° |
| 2026-04-23 12:03 | 41.67250 | 12.60068 | 8134 ft | 258 kts | 52° |
| 2026-04-23 12:03 | 41.68343 | 12.61941 | 8138 ft | 259 kts | 52° |
| 2026-04-23 12:04 | 41.69307 | 12.63966 | 8120 ft | 261 kts | 70° |
| 2026-04-23 12:04 | 41.69616 | 12.66406 | 8139 ft | 269 kts | 83° |
| 2026-04-23 12:04 | 41.69784 | 12.68898 | 8144 ft | 271 kts | 83° |
| 2026-04-23 12:04 | 41.69956 | 12.71418 | 8126 ft | 272 kts | 83° |
| 2026-04-23 12:05 | 41.70132 | 12.73924 | 8131 ft | 270 kts | 83° |
| 2026-04-23 12:05 | 41.70309 | 12.76421 | 8134 ft | 270 kts | 83° |
| 2026-04-23 12:05 | 41.70488 | 12.78922 | 8134 ft | 270 kts | 82° |
| 2026-04-23 12:05 | 41.71020 | 12.81301 | 8128 ft | 269 kts | 57° |
| 2026-04-23 12:06 | 41.72321 | 12.83051 | 8273 ft | 267 kts | 33° |
| 2026-04-23 12:06 | 41.74079 | 12.84060 | 8610 ft | 287 kts | 15° |
| 2026-04-23 12:06 | 41.78210 | 12.85204 | 9349 ft | 322 kts | 12° |
| 2026-04-23 12:07 | 41.80455 | 12.85780 | 9805 ft | 332 kts | 12° |
| 2026-04-23 12:07 | 41.82744 | 12.86374 | 10326 ft | 336 kts | 13° |
| 2026-04-23 12:07 | 41.85051 | 12.86983 | 10945 ft | 339 kts | 13° |
| 2026-04-23 12:07 | 41.87361 | 12.87604 | 11770 ft | 338 kts | 12° |
| 2026-04-23 12:08 | 41.89667 | 12.88231 | 12506 ft | 340 kts | 13° |
| 2026-04-23 12:08 | 41.92007 | 12.88872 | 13131 ft | 345 kts | 13° |
| 2026-04-23 12:08 | 41.94364 | 12.89520 | 13882 ft | 347 kts | 13° |
| 2026-04-23 12:08 | 41.96738 | 12.90174 | 14533 ft | 350 kts | 12° |
| 2026-04-23 12:09 | 41.99133 | 12.90833 | 15166 ft | 352 kts | 13° |
| 2026-04-23 12:09 | 42.01531 | 12.91494 | 15839 ft | 354 kts | 13° |
| 2026-04-23 12:09 | 42.03906 | 12.92213 | 16481 ft | 356 kts | 17° |
| 2026-04-23 12:09 | 42.06266 | 12.93244 | 17131 ft | 357 kts | 20° |
| 2026-04-23 12:10 | 42.08610 | 12.94411 | 17785 ft | 359 kts | 21° |
| 2026-04-23 12:10 | 42.10958 | 12.95619 | 18376 ft | 362 kts | 22° |
| 2026-04-23 12:10 | 42.13317 | 12.96833 | 18926 ft | 365 kts | 22° |
| 2026-04-23 12:10 | 42.15696 | 12.98044 | 19426 ft | 367 kts | 22° |
| 2026-04-23 12:11 | 42.18100 | 12.99259 | 19943 ft | 370 kts | 22° |
| 2026-04-23 12:11 | 42.20527 | 13.00471 | 20459 ft | 372 kts | 22° |
| 2026-04-23 12:11 | 42.22967 | 13.01679 | 20968 ft | 375 kts | 22° |
| 2026-04-23 12:11 | 42.25425 | 13.02892 | 21487 ft | 378 kts | 22° |
| 2026-04-23 12:12 | 42.27871 | 13.04099 | 21972 ft | 380 kts | 22° |
| 2026-04-23 12:12 | 42.30371 | 13.05330 | 22394 ft | 384 kts | 22° |
| 2026-04-23 12:12 | 42.32922 | 13.06583 | 22800 ft | 386 kts | 22° |
| 2026-04-23 12:12 | 42.35418 | 13.07811 | 23276 ft | 387 kts | 23° |
| 2026-04-23 12:13 | 42.37964 | 13.09071 | 23757 ft | 389 kts | 23° |
| 2026-04-23 12:13 | 42.40513 | 13.10335 | 24127 ft | 392 kts | 23° |
| 2026-04-23 12:13 | 42.43085 | 13.11610 | 24488 ft | 394 kts | 23° |
| 2026-04-23 12:13 | 42.45671 | 13.12893 | 24888 ft | 396 kts | 24° |
| 2026-04-23 12:14 | 42.48266 | 13.14179 | 25237 ft | 398 kts | 23° |
| 2026-04-23 12:14 | 42.50884 | 13.15471 | 25508 ft | 402 kts | 23° |
| 2026-04-23 12:14 | 42.52630 | 13.16339 | 25741 ft | 403 kts | 23° |
| 2026-04-23 12:14 | 42.55271 | 13.17654 | 26102 ft | 405 kts | 24° |
| 2026-04-23 12:15 | 42.58779 | 13.19407 | 26586 ft | 406 kts | 24° |
| 2026-04-23 12:15 | 42.61434 | 13.20730 | 26929 ft | 408 kts | 24° |
| 2026-04-23 12:15 | 42.64112 | 13.22064 | 27266 ft | 410 kts | 24° |
| 2026-04-23 12:15 | 42.66791 | 13.23400 | 27563 ft | 412 kts | 24° |
| 2026-04-23 12:16 | 42.68619 | 13.24313 | 27721 ft | 415 kts | 24° |
| 2026-04-23 12:16 | 42.71335 | 13.25671 | 28006 ft | 417 kts | 24° |
| 2026-04-23 12:16 | 42.74071 | 13.27039 | 28360 ft | 418 kts | 24° |
| 2026-04-23 12:16 | 42.76772 | 13.28391 | 28687 ft | 419 kts | 24° |
| 2026-04-23 12:17 | 42.79518 | 13.29766 | 28998 ft | 421 kts | 24° |
| 2026-04-23 12:17 | 42.82269 | 13.31145 | 29361 ft | 421 kts | 24° |
| 2026-04-23 12:17 | 42.85016 | 13.32523 | 29813 ft | 419 kts | 24° |
| 2026-04-23 12:17 | 42.87748 | 13.33895 | 30195 ft | 418 kts | 24° |
| 2026-04-23 12:18 | 42.90487 | 13.35272 | 30473 ft | 419 kts | 24° |
| 2026-04-23 12:18 | 42.93224 | 13.36651 | 30778 ft | 419 kts | 24° |
| 2026-04-23 12:18 | 42.95949 | 13.38024 | 31180 ft | 416 kts | 25° |
| 2026-04-23 12:18 | 42.98660 | 13.39391 | 31545 ft | 414 kts | 25° |
| 2026-04-23 12:19 | 43.01356 | 13.40752 | 31827 ft | 414 kts | 25° |
| 2026-04-23 12:19 | 43.04067 | 13.42123 | 32068 ft | 415 kts | 24° |
| 2026-04-23 12:19 | 43.06776 | 13.43494 | 32302 ft | 416 kts | 25° |
| 2026-04-23 12:19 | 43.09452 | 13.44850 | 32600 ft | 415 kts | 25° |
| 2026-04-23 12:20 | 43.12157 | 13.46220 | 32962 ft | 413 kts | 25° |
| 2026-04-23 12:20 | 43.14841 | 13.47581 | 33283 ft | 411 kts | 25° |
| 2026-04-23 12:20 | 43.17526 | 13.48944 | 33553 ft | 411 kts | 25° |
| 2026-04-23 12:20 | 43.20208 | 13.50307 | 33871 ft | 410 kts | 25° |
| 2026-04-23 12:21 | 43.22877 | 13.51664 | 34187 ft | 408 kts | 25° |
| 2026-04-23 12:21 | 43.25547 | 13.53024 | 34353 ft | 409 kts | 25° |
| 2026-04-23 12:21 | 43.28224 | 13.54391 | 34490 ft | 411 kts | 25° |
| 2026-04-23 12:21 | 43.30905 | 13.55759 | 34696 ft | 411 kts | 24° |
| 2026-04-23 12:22 | 43.33584 | 13.57126 | 34912 ft | 410 kts | 24° |
| 2026-04-23 12:22 | 43.36261 | 13.58494 | 35096 ft | 411 kts | 24° |
| 2026-04-23 12:22 | 43.38946 | 13.59869 | 35269 ft | 411 kts | 24° |
| 2026-04-23 12:22 | 43.41628 | 13.61242 | 35456 ft | 411 kts | 24° |
| 2026-04-23 12:23 | 43.44274 | 13.62599 | 35633 ft | 411 kts | 24° |
| 2026-04-23 12:23 | 43.46966 | 13.63980 | 35806 ft | 412 kts | 24° |
| 2026-04-23 12:23 | 43.49647 | 13.65357 | 35994 ft | 411 kts | 24° |
| 2026-04-23 12:23 | 43.52332 | 13.66737 | 36174 ft | 411 kts | 24° |
| 2026-04-23 12:24 | 43.57723 | 13.69514 | 36225 ft | 414 kts | 24° |
| 2026-04-23 12:24 | 43.63105 | 13.72288 | 36229 ft | 411 kts | 24° |
| 2026-04-23 12:25 | 43.68419 | 13.75034 | 36230 ft | 409 kts | 24° |
| 2026-04-23 12:25 | 43.73758 | 13.77798 | 36231 ft | 408 kts | 24° |
| 2026-04-23 12:26 | 43.79079 | 13.80559 | 36215 ft | 408 kts | 24° |
| 2026-04-23 12:26 | 43.84394 | 13.83323 | 36232 ft | 408 kts | 24° |
| 2026-04-23 12:27 | 43.89692 | 13.86082 | 36232 ft | 410 kts | 24° |
| 2026-04-23 12:27 | 43.95053 | 13.88880 | 36231 ft | 412 kts | 24° |
| 2026-04-23 12:28 | 44.00437 | 13.91695 | 36230 ft | 414 kts | 24° |
| 2026-04-23 12:28 | 44.05851 | 13.94538 | 36227 ft | 416 kts | 24° |
| 2026-04-23 12:29 | 44.11284 | 13.97407 | 36226 ft | 418 kts | 24° |
| 2026-04-23 12:29 | 44.16612 | 14.00226 | 36215 ft | 419 kts | 24° |
| 2026-04-23 12:30 | 44.22064 | 14.03116 | 36218 ft | 419 kts | 24° |
| 2026-04-23 12:30 | 44.27502 | 14.06003 | 36216 ft | 418 kts | 24° |
| 2026-04-23 12:31 | 44.32934 | 14.08893 | 36202 ft | 417 kts | 24° |
| 2026-04-23 12:31 | 44.38357 | 14.11784 | 36252 ft | 418 kts | 24° |
| 2026-04-23 12:32 | 44.41078 | 14.13237 | 36426 ft | 418 kts | 24° |
| 2026-04-23 12:32 | 44.43755 | 14.14668 | 36669 ft | 416 kts | 24° |
| 2026-04-23 12:32 | 44.46453 | 14.16111 | 36877 ft | 415 kts | 24° |
| 2026-04-23 12:32 | 44.49149 | 14.17554 | 37026 ft | 415 kts | 24° |
| 2026-04-23 12:33 | 44.51845 | 14.18999 | 37137 ft | 415 kts | 24° |
| 2026-04-23 12:33 | 44.54546 | 14.20449 | 37195 ft | 416 kts | 24° |
| 2026-04-23 12:33 | 44.59964 | 14.23362 | 37196 ft | 417 kts | 24° |
| 2026-04-23 12:34 | 44.65371 | 14.26272 | 37195 ft | 415 kts | 24° |
| 2026-04-23 12:34 | 44.70753 | 14.29174 | 37197 ft | 413 kts | 23° |
| 2026-04-23 12:35 | 44.76114 | 14.32072 | 37192 ft | 412 kts | 24° |
| 2026-04-23 12:35 | 44.81429 | 14.34952 | 37188 ft | 411 kts | 24° |
| 2026-04-23 12:36 | 44.86797 | 14.37866 | 37202 ft | 411 kts | 23° |
| 2026-04-23 12:36 | 44.92126 | 14.40765 | 37179 ft | 410 kts | 23° |
| 2026-04-23 12:37 | 44.97444 | 14.43668 | 37190 ft | 409 kts | 24° |
| 2026-04-23 12:37 | 45.02695 | 14.46531 | 37171 ft | 409 kts | 23° |
| 2026-04-23 12:38 | 45.08011 | 14.49438 | 37167 ft | 408 kts | 23° |
| 2026-04-23 12:38 | 45.13312 | 14.52343 | 37156 ft | 408 kts | 23° |
| 2026-04-23 12:39 | 45.18603 | 14.55250 | 37157 ft | 407 kts | 23° |
| 2026-04-23 12:39 | 45.23892 | 14.58161 | 37145 ft | 407 kts | 23° |
| 2026-04-23 12:40 | 45.29169 | 14.61071 | 37151 ft | 406 kts | 23° |
| 2026-04-23 12:40 | 45.34405 | 14.63965 | 37165 ft | 406 kts | 23° |
| 2026-04-23 12:41 | 45.39684 | 14.66890 | 37169 ft | 407 kts | 23° |
| 2026-04-23 12:41 | 45.44976 | 14.69825 | 37159 ft | 408 kts | 23° |
| 2026-04-23 12:42 | 45.50282 | 14.72774 | 37157 ft | 410 kts | 23° |
| 2026-04-23 12:42 | 45.55666 | 14.75481 | 37191 ft | 410 kts | 19° |
| 2026-04-23 12:43 | 45.61165 | 14.77780 | 37147 ft | 412 kts | 18° |
| 2026-04-23 12:43 | 45.66682 | 14.80052 | 37156 ft | 413 kts | 18° |
| 2026-04-23 12:44 | 45.72188 | 14.82364 | 37157 ft | 414 kts | 18° |
| 2026-04-23 12:44 | 45.77729 | 14.84722 | 37155 ft | 416 kts | 18° |
| 2026-04-23 12:45 | 45.83272 | 14.87095 | 37163 ft | 416 kts | 18° |
| 2026-04-23 12:45 | 45.88830 | 14.89481 | 37160 ft | 416 kts | 18° |
| 2026-04-23 12:46 | 45.94382 | 14.91868 | 37163 ft | 416 kts | 18° |
| 2026-04-23 12:46 | 45.99891 | 14.94242 | 37171 ft | 416 kts | 18° |
| 2026-04-23 12:47 | 46.05415 | 14.96628 | 37161 ft | 415 kts | 18° |
| 2026-04-23 12:47 | 46.10950 | 14.99023 | 37153 ft | 414 kts | 18° |
| 2026-04-23 12:48 | 46.16370 | 15.01373 | 37150 ft | 412 kts | 18° |
| 2026-04-23 12:48 | 46.21869 | 15.03762 | 37151 ft | 411 kts | 18° |
| 2026-04-23 12:49 | 46.27323 | 15.06137 | 37153 ft | 410 kts | 18° |
| 2026-04-23 12:49 | 46.32785 | 15.08521 | 37160 ft | 409 kts | 18° |
| 2026-04-23 12:50 | 46.38234 | 15.10903 | 37149 ft | 409 kts | 18° |
| 2026-04-23 12:50 | 46.43657 | 15.13280 | 37159 ft | 410 kts | 18° |
| 2026-04-23 12:51 | 46.49132 | 15.15684 | 37150 ft | 411 kts | 18° |
| 2026-04-23 12:51 | 46.54622 | 15.18105 | 37164 ft | 412 kts | 18° |
| 2026-04-23 12:52 | 46.60132 | 15.20533 | 37153 ft | 414 kts | 18° |
| 2026-04-23 12:52 | 46.65619 | 15.22955 | 37150 ft | 416 kts | 18° |
| 2026-04-23 12:53 | 46.71172 | 15.25413 | 37145 ft | 418 kts | 18° |
| 2026-04-23 12:53 | 46.76741 | 15.27884 | 37154 ft | 418 kts | 18° |
| 2026-04-23 12:54 | 46.82319 | 15.30365 | 37153 ft | 418 kts | 18° |
| 2026-04-23 12:54 | 46.87885 | 15.32846 | 37151 ft | 417 kts | 18° |
| 2026-04-23 12:55 | 46.93432 | 15.35323 | 37156 ft | 416 kts | 18° |
| 2026-04-23 12:55 | 46.98919 | 15.37779 | 37158 ft | 414 kts | 18° |
| 2026-04-23 12:56 | 47.04397 | 15.40236 | 37156 ft | 412 kts | 18° |
| 2026-04-23 12:56 | 47.09877 | 15.42700 | 37155 ft | 411 kts | 18° |
| 2026-04-23 12:57 | 47.15334 | 15.45159 | 37145 ft | 409 kts | 18° |
| 2026-04-23 12:57 | 47.20752 | 15.47605 | 37145 ft | 410 kts | 18° |
| 2026-04-23 12:58 | 47.26204 | 15.50072 | 37151 ft | 410 kts | 18° |
| 2026-04-23 12:58 | 47.31654 | 15.52543 | 37151 ft | 410 kts | 18° |
| 2026-04-23 12:59 | 47.37108 | 15.55022 | 37164 ft | 409 kts | 18° |
| 2026-04-23 12:59 | 47.42566 | 15.57508 | 37165 ft | 410 kts | 18° |
| 2026-04-23 13:00 | 47.48079 | 15.59602 | 37135 ft | 409 kts | 20° |
| 2026-04-23 13:00 | 47.53440 | 15.62431 | 37181 ft | 410 kts | 19° |
| 2026-04-23 13:01 | 47.58858 | 15.65001 | 37184 ft | 411 kts | 18° |
| 2026-04-23 13:01 | 47.64290 | 15.67481 | 37163 ft | 404 kts | 18° |
| 2026-04-23 13:02 | 47.69610 | 15.69913 | 37172 ft | 397 kts | 18° |
| 2026-04-23 13:02 | 47.74913 | 15.72353 | 37172 ft | 401 kts | 19° |
| 2026-04-23 13:03 | 47.79366 | 15.74411 | 37168 ft | 406 kts | 19° |
| 2026-04-23 13:03 | 47.84794 | 15.76926 | 37178 ft | 409 kts | 18° |
| 2026-04-23 13:04 | 47.90242 | 15.79459 | 37150 ft | 409 kts | 19° |
| 2026-04-23 13:04 | 47.95632 | 15.81967 | 37142 ft | 403 kts | 18° |
| 2026-04-23 13:05 | 48.00935 | 15.84433 | 37148 ft | 399 kts | 18° |
| 2026-04-23 13:05 | 48.06210 | 15.86896 | 37150 ft | 396 kts | 18° |
| 2026-04-23 13:06 | 48.14083 | 15.90586 | 37162 ft | 400 kts | 18° |
| 2026-04-23 13:07 | 48.19445 | 15.93106 | 37150 ft | 406 kts | 18° |
| 2026-04-23 13:07 | 48.24873 | 15.95662 | 37143 ft | 410 kts | 18° |
| 2026-04-23 13:08 | 48.30337 | 15.98240 | 37157 ft | 412 kts | 18° |
| 2026-04-23 13:08 | 48.35714 | 16.00783 | 37151 ft | 414 kts | 18° |
| 2026-04-23 13:09 | 48.41219 | 16.03391 | 37147 ft | 412 kts | 19° |
| 2026-04-23 13:09 | 48.46597 | 16.05945 | 37139 ft | 401 kts | 19° |
| 2026-04-23 13:10 | 48.51923 | 16.08481 | 37146 ft | 401 kts | 19° |
| 2026-04-23 13:10 | 48.57253 | 16.11025 | 37139 ft | 402 kts | 19° |
| 2026-04-23 13:11 | 48.62599 | 16.13583 | 37142 ft | 403 kts | 19° |
| 2026-04-23 13:11 | 48.67943 | 16.16145 | 37137 ft | 404 kts | 19° |
| 2026-04-23 13:12 | 48.73269 | 16.18702 | 37128 ft | 404 kts | 19° |
| 2026-04-23 13:12 | 48.78536 | 16.21682 | 37121 ft | 403 kts | 29° |
| 2026-04-23 13:13 | 48.83423 | 16.25843 | 37135 ft | 403 kts | 30° |
| 2026-04-23 13:13 | 48.88305 | 16.30033 | 37128 ft | 403 kts | 30° |
| 2026-04-23 13:14 | 48.93184 | 16.34202 | 37131 ft | 402 kts | 30° |
| 2026-04-23 13:14 | 48.98065 | 16.38364 | 37120 ft | 402 kts | 30° |
| 2026-04-23 13:15 | 49.02900 | 16.42491 | 37098 ft | 401 kts | 30° |
| 2026-04-23 13:15 | 49.07763 | 16.46649 | 37103 ft | 400 kts | 30° |
| 2026-04-23 13:16 | 49.12612 | 16.50806 | 37106 ft | 399 kts | 30° |
| 2026-04-23 13:16 | 49.17446 | 16.54960 | 37105 ft | 398 kts | 30° |
| 2026-04-23 13:17 | 49.22268 | 16.59112 | 37094 ft | 397 kts | 30° |
| 2026-04-23 13:17 | 49.27048 | 16.63238 | 37103 ft | 396 kts | 30° |
| 2026-04-23 13:18 | 49.31848 | 16.67389 | 37113 ft | 396 kts | 30° |
| 2026-04-23 13:18 | 49.36664 | 16.71567 | 37118 ft | 400 kts | 30° |
| 2026-04-23 13:19 | 49.41535 | 16.75798 | 37118 ft | 404 kts | 30° |
| 2026-04-23 13:19 | 49.46435 | 16.80067 | 37106 ft | 404 kts | 30° |
| 2026-04-23 13:20 | 49.51240 | 16.84261 | 37090 ft | 395 kts | 30° |
| 2026-04-23 13:20 | 49.56005 | 16.88430 | 37103 ft | 393 kts | 30° |
| 2026-04-23 13:21 | 49.60758 | 16.92599 | 37103 ft | 392 kts | 30° |
| 2026-04-23 13:21 | 49.65502 | 16.96768 | 37104 ft | 392 kts | 30° |
| 2026-04-23 13:22 | 49.70164 | 17.00876 | 37100 ft | 392 kts | 30° |
| 2026-04-23 13:22 | 49.74906 | 17.05062 | 37096 ft | 393 kts | 30° |
| 2026-04-23 13:23 | 49.79653 | 17.09263 | 37096 ft | 393 kts | 30° |
| 2026-04-23 13:23 | 49.84370 | 17.13448 | 37100 ft | 393 kts | 30° |
| 2026-04-23 13:24 | 49.89130 | 17.17679 | 37108 ft | 394 kts | 30° |
| 2026-04-23 13:24 | 49.93894 | 17.21924 | 37097 ft | 395 kts | 30° |
| 2026-04-23 13:25 | 49.98666 | 17.26186 | 37096 ft | 396 kts | 30° |
| 2026-04-23 13:25 | 50.03436 | 17.30456 | 37095 ft | 396 kts | 30° |
| 2026-04-23 13:26 | 50.08208 | 17.34738 | 37105 ft | 396 kts | 30° |
| 2026-04-23 13:26 | 50.12996 | 17.39044 | 37109 ft | 397 kts | 30° |
| 2026-04-23 13:27 | 50.17751 | 17.43331 | 37101 ft | 396 kts | 30° |
| 2026-04-23 13:27 | 50.22520 | 17.47640 | 37110 ft | 396 kts | 30° |
| 2026-04-23 13:28 | 50.27208 | 17.52180 | 37104 ft | 396 kts | 37° |
| 2026-04-23 13:28 | 50.31207 | 17.58109 | 37105 ft | 396 kts | 43° |
| 2026-04-23 13:29 | 50.35088 | 17.64203 | 37097 ft | 395 kts | 43° |
| 2026-04-23 13:29 | 50.38943 | 17.70241 | 37097 ft | 394 kts | 43° |
| 2026-04-23 13:30 | 50.42829 | 17.76319 | 37093 ft | 393 kts | 43° |
| 2026-04-23 13:30 | 50.46693 | 17.82371 | 37099 ft | 392 kts | 43° |
| 2026-04-23 13:31 | 50.50551 | 17.88425 | 37094 ft | 391 kts | 43° |
| 2026-04-23 13:31 | 50.54376 | 17.94441 | 37088 ft | 392 kts | 43° |
| 2026-04-23 13:32 | 50.58150 | 18.00394 | 37088 ft | 392 kts | 43° |
| 2026-04-23 13:32 | 50.61996 | 18.06473 | 37083 ft | 392 kts | 43° |
| 2026-04-23 13:33 | 50.65840 | 18.12560 | 37088 ft | 392 kts | 43° |
| 2026-04-23 13:33 | 50.69688 | 18.18676 | 37080 ft | 392 kts | 43° |
| 2026-04-23 13:34 | 50.73499 | 18.24746 | 37078 ft | 392 kts | 43° |
| 2026-04-23 13:34 | 50.75425 | 18.27817 | 36813 ft | 396 kts | 43° |
| 2026-04-23 13:34 | 50.77358 | 18.30904 | 36570 ft | 395 kts | 43° |
| 2026-04-23 13:34 | 50.79279 | 18.33979 | 36298 ft | 390 kts | 43° |
| 2026-04-23 13:35 | 50.81174 | 18.37015 | 36039 ft | 386 kts | 43° |
| 2026-04-23 13:35 | 50.83061 | 18.40043 | 35800 ft | 386 kts | 43° |
| 2026-04-23 13:35 | 50.84940 | 18.43060 | 35542 ft | 384 kts | 43° |
| 2026-04-23 13:35 | 50.86816 | 18.46075 | 34944 ft | 384 kts | 43° |
| 2026-04-23 13:36 | 50.88692 | 18.49092 | 34369 ft | 384 kts | 43° |
| 2026-04-23 13:36 | 50.90566 | 18.52111 | 33729 ft | 384 kts | 43° |
| 2026-04-23 13:36 | 50.92439 | 18.55133 | 33086 ft | 383 kts | 43° |
| 2026-04-23 13:36 | 50.94306 | 18.58148 | 32470 ft | 383 kts | 43° |
| 2026-04-23 13:37 | 50.96157 | 18.61143 | 32057 ft | 377 kts | 43° |
| 2026-04-23 13:37 | 50.97989 | 18.64110 | 31590 ft | 373 kts | 43° |
| 2026-04-23 13:37 | 50.99796 | 18.67041 | 31153 ft | 369 kts | 43° |
| 2026-04-23 13:37 | 51.01542 | 18.69875 | 30729 ft | 364 kts | 43° |
| 2026-04-23 13:38 | 51.03303 | 18.72736 | 30312 ft | 360 kts | 43° |
| 2026-04-23 13:38 | 51.05062 | 18.75596 | 29867 ft | 364 kts | 43° |
| 2026-04-23 13:38 | 51.06844 | 18.78497 | 29410 ft | 365 kts | 43° |
| 2026-04-23 13:38 | 51.08603 | 18.81365 | 28960 ft | 360 kts | 43° |
| 2026-04-23 13:39 | 51.10339 | 18.84201 | 28522 ft | 355 kts | 43° |
| 2026-04-23 13:39 | 51.12058 | 18.87011 | 28095 ft | 351 kts | 43° |
| 2026-04-23 13:39 | 51.13732 | 18.89750 | 27669 ft | 347 kts | 43° |
| 2026-04-23 13:39 | 51.15416 | 18.92507 | 27242 ft | 350 kts | 43° |
| 2026-04-23 13:40 | 51.17134 | 18.95320 | 26811 ft | 358 kts | 43° |
| 2026-04-23 13:40 | 51.18860 | 18.98153 | 26353 ft | 354 kts | 43° |
| 2026-04-23 13:40 | 51.20516 | 19.00875 | 25938 ft | 351 kts | 43° |
| 2026-04-23 13:40 | 51.22205 | 19.03657 | 25515 ft | 347 kts | 43° |
| 2026-04-23 13:41 | 51.23884 | 19.06424 | 25118 ft | 344 kts | 43° |
| 2026-04-23 13:41 | 51.25544 | 19.09162 | 24740 ft | 341 kts | 43° |
| 2026-04-23 13:41 | 51.27187 | 19.11873 | 24347 ft | 340 kts | 43° |
| 2026-04-23 13:41 | 51.28840 | 19.14603 | 23948 ft | 345 kts | 43° |
| 2026-04-23 13:42 | 51.30496 | 19.17339 | 23527 ft | 348 kts | 43° |
| 2026-04-23 13:42 | 51.32169 | 19.20110 | 23038 ft | 345 kts | 43° |
| 2026-04-23 13:42 | 51.33832 | 19.22869 | 22594 ft | 342 kts | 43° |
| 2026-04-23 13:42 | 51.35471 | 19.25592 | 22172 ft | 338 kts | 43° |
| 2026-04-23 13:43 | 51.37093 | 19.28290 | 21765 ft | 334 kts | 43° |
| 2026-04-23 13:43 | 51.38702 | 19.30967 | 21350 ft | 333 kts | 42° |
| 2026-04-23 13:43 | 51.40309 | 19.33643 | 20947 ft | 332 kts | 42° |
| 2026-04-23 13:43 | 51.41913 | 19.36316 | 20540 ft | 333 kts | 42° |
| 2026-04-23 13:44 | 51.43525 | 19.39003 | 20136 ft | 336 kts | 42° |
| 2026-04-23 13:44 | 51.45143 | 19.41708 | 19723 ft | 335 kts | 42° |
| 2026-04-23 13:44 | 51.46746 | 19.44389 | 19307 ft | 332 kts | 42° |
| 2026-04-23 13:44 | 51.48322 | 19.47030 | 18914 ft | 330 kts | 42° |
| 2026-04-23 13:45 | 51.49394 | 19.48828 | 18643 ft | 329 kts | 42° |
| 2026-04-23 13:45 | 51.51479 | 19.52326 | 18078 ft | 326 kts | 42° |
| 2026-04-23 13:45 | 51.53046 | 19.54957 | 17637 ft | 324 kts | 42° |
| 2026-04-23 13:45 | 51.54598 | 19.57566 | 17220 ft | 322 kts | 42° |
| 2026-04-23 13:46 | 51.56138 | 19.60158 | 16811 ft | 319 kts | 42° |
| 2026-04-23 13:46 | 51.57710 | 19.62681 | 16419 ft | 317 kts | 35° |
| 2026-04-23 13:46 | 51.59605 | 19.64448 | 16033 ft | 314 kts | 20° |
| 2026-04-23 13:46 | 51.61637 | 19.65743 | 15643 ft | 313 kts | 19° |
| 2026-04-23 13:47 | 51.63637 | 19.66998 | 15239 ft | 311 kts | 19° |
| 2026-04-23 13:47 | 51.65641 | 19.68278 | 14851 ft | 309 kts | 20° |
| 2026-04-23 13:47 | 51.67637 | 19.69567 | 14442 ft | 307 kts | 19° |
| 2026-04-23 13:47 | 51.69692 | 19.70329 | 14042 ft | 303 kts | 1° |
| 2026-04-23 13:48 | 51.71764 | 19.70096 | 13905 ft | 297 kts | 349° |
| 2026-04-23 13:48 | 51.73743 | 19.69183 | 13772 ft | 297 kts | 345° |
| 2026-04-23 13:48 | 51.75746 | 19.68144 | 13632 ft | 304 kts | 344° |
| 2026-04-23 13:48 | 51.77774 | 19.67090 | 13481 ft | 307 kts | 344° |
| 2026-04-23 13:49 | 51.79812 | 19.66050 | 13315 ft | 306 kts | 345° |
| 2026-04-23 13:49 | 51.81834 | 19.65031 | 13181 ft | 304 kts | 345° |
| 2026-04-23 13:49 | 51.83170 | 19.64361 | 13076 ft | 303 kts | 345° |
| 2026-04-23 13:49 | 51.85183 | 19.63355 | 12930 ft | 302 kts | 345° |
| 2026-04-23 13:50 | 51.87840 | 19.62026 | 12751 ft | 301 kts | 345° |
| 2026-04-23 13:50 | 51.89843 | 19.61024 | 12598 ft | 301 kts | 345° |
| 2026-04-23 13:50 | 51.91847 | 19.60020 | 12467 ft | 301 kts | 345° |
| 2026-04-23 13:50 | 51.93197 | 19.59343 | 12372 ft | 301 kts | 345° |
| 2026-04-23 13:51 | 51.95174 | 19.58350 | 12226 ft | 301 kts | 345° |
| 2026-04-23 13:51 | 51.97175 | 19.57345 | 12088 ft | 301 kts | 345° |
| 2026-04-23 13:51 | 51.99176 | 19.56338 | 11945 ft | 301 kts | 345° |
| 2026-04-23 13:51 | 52.01168 | 19.55336 | 11806 ft | 301 kts | 345° |
| 2026-04-23 13:52 | 52.03170 | 19.54327 | 11673 ft | 301 kts | 344° |
| 2026-04-23 13:52 | 52.05171 | 19.53318 | 11525 ft | 301 kts | 344° |
| 2026-04-23 13:52 | 52.07167 | 19.52311 | 11387 ft | 301 kts | 344° |
| 2026-04-23 13:52 | 52.09198 | 19.51580 | 11231 ft | 299 kts | 359° |
| 2026-04-23 13:53 | 52.11254 | 19.52030 | 11121 ft | 298 kts | 14° |
| 2026-04-23 13:53 | 52.13155 | 19.53393 | 10974 ft | 301 kts | 27° |
| 2026-04-23 13:53 | 52.14961 | 19.55136 | 10826 ft | 301 kts | 28° |
| 2026-04-23 13:53 | 52.16745 | 19.56922 | 10685 ft | 301 kts | 28° |
| 2026-04-23 13:54 | 52.18524 | 19.58710 | 10543 ft | 300 kts | 28° |
| 2026-04-23 13:54 | 52.20267 | 19.60454 | 10396 ft | 294 kts | 28° |
| 2026-04-23 13:54 | 52.21979 | 19.62161 | 10257 ft | 284 kts | 28° |
| 2026-04-23 13:54 | 52.23644 | 19.63814 | 10122 ft | 276 kts | 28° |
| 2026-04-23 13:55 | 52.25261 | 19.65415 | 9993 ft | 267 kts | 28° |
| 2026-04-23 13:55 | 52.26830 | 19.66967 | 9864 ft | 260 kts | 28° |
| 2026-04-23 13:55 | 52.28367 | 19.68486 | 9731 ft | 257 kts | 27° |
| 2026-04-23 13:55 | 52.29894 | 19.69994 | 9619 ft | 256 kts | 28° |
| 2026-04-23 13:56 | 52.31421 | 19.71503 | 9497 ft | 256 kts | 27° |
| 2026-04-23 13:56 | 52.32916 | 19.72984 | 9370 ft | 248 kts | 28° |
| 2026-04-23 13:56 | 52.34371 | 19.74429 | 9253 ft | 241 kts | 27° |
| 2026-04-23 13:56 | 52.35781 | 19.75828 | 9139 ft | 233 kts | 27° |
| 2026-04-23 13:57 | 52.36975 | 19.77526 | 9001 ft | 234 kts | 52° |
| 2026-04-23 13:57 | 52.37654 | 19.79945 | 8948 ft | 238 kts | 69° |
| 2026-04-23 13:57 | 52.37955 | 19.82651 | 8840 ft | 242 kts | 76° |
| 2026-04-23 13:57 | 52.38158 | 19.85394 | 8713 ft | 244 kts | 76° |
| 2026-04-23 13:58 | 52.38354 | 19.88176 | 8609 ft | 247 kts | 76° |
| 2026-04-23 13:58 | 52.38557 | 19.90985 | 8485 ft | 249 kts | 76° |
| 2026-04-23 13:58 | 52.38765 | 19.93806 | 8365 ft | 249 kts | 76° |
| 2026-04-23 13:58 | 52.38977 | 19.96626 | 8252 ft | 250 kts | 76° |
| 2026-04-23 13:59 | 52.39191 | 19.99421 | 8136 ft | 251 kts | 76° |
| 2026-04-23 13:59 | 52.39403 | 20.02164 | 8016 ft | 250 kts | 76° |
| 2026-04-23 13:59 | 52.39620 | 20.04978 | 7892 ft | 247 kts | 76° |
| 2026-04-23 13:59 | 52.39834 | 20.07748 | 7775 ft | 243 kts | 76° |
| 2026-04-23 14:00 | 52.39978 | 20.09601 | 7691 ft | 242 kts | 76° |
| 2026-04-23 14:00 | 52.40258 | 20.13216 | 7551 ft | 241 kts | 76° |
| 2026-04-23 14:00 | 52.40467 | 20.15928 | 7452 ft | 240 kts | 76° |
| 2026-04-23 14:00 | 52.40753 | 20.18603 | 7323 ft | 234 kts | 62° |
| 2026-04-23 14:01 | 52.41689 | 20.20616 | 7238 ft | 218 kts | 34° |
| 2026-04-23 14:01 | 52.42943 | 20.21966 | 7138 ft | 216 kts | 25° |
| 2026-04-23 14:01 | 52.44264 | 20.23159 | 7044 ft | 219 kts | 24° |
| 2026-04-23 14:01 | 52.45592 | 20.24356 | 6939 ft | 221 kts | 25° |
| 2026-04-23 14:02 | 52.46938 | 20.25587 | 6832 ft | 222 kts | 25° |
| 2026-04-23 14:02 | 52.48290 | 20.26832 | 6736 ft | 223 kts | 25° |
| 2026-04-23 14:02 | 52.49568 | 20.28305 | 6611 ft | 232 kts | 45° |
| 2026-04-23 14:02 | 52.50288 | 20.30709 | 6514 ft | 239 kts | 69° |
| 2026-04-23 14:03 | 52.50618 | 20.33397 | 6412 ft | 239 kts | 75° |
| 2026-04-23 14:03 | 52.50861 | 20.36089 | 6269 ft | 237 kts | 76° |
| 2026-04-23 14:03 | 52.51095 | 20.38766 | 6147 ft | 235 kts | 75° |
| 2026-04-23 14:03 | 52.51330 | 20.41409 | 6037 ft | 233 kts | 74° |
| 2026-04-23 14:04 | 52.51568 | 20.44032 | 5937 ft | 233 kts | 74° |
| 2026-04-23 14:04 | 52.51814 | 20.46670 | 5819 ft | 235 kts | 75° |
| 2026-04-23 14:04 | 52.52065 | 20.49335 | 5708 ft | 237 kts | 75° |
| 2026-04-23 14:04 | 52.52316 | 20.52014 | 5609 ft | 238 kts | 74° |
| 2026-04-23 14:05 | 52.52571 | 20.54715 | 5490 ft | 241 kts | 74° |
| 2026-04-23 14:05 | 52.52825 | 20.57408 | 5377 ft | 242 kts | 75° |
| 2026-04-23 14:05 | 52.53082 | 20.60126 | 5250 ft | 239 kts | 74° |
| 2026-04-23 14:05 | 52.53331 | 20.62818 | 5133 ft | 236 kts | 75° |
| 2026-04-23 14:06 | 52.53579 | 20.65478 | 5041 ft | 235 kts | 75° |
| 2026-04-23 14:06 | 52.53828 | 20.68136 | 4939 ft | 236 kts | 74° |
| 2026-04-23 14:06 | 52.54076 | 20.70803 | 4819 ft | 236 kts | 74° |
| 2026-04-23 14:06 | 52.54323 | 20.73467 | 4712 ft | 236 kts | 74° |
| 2026-04-23 14:07 | 52.54570 | 20.76128 | 4608 ft | 235 kts | 74° |
| 2026-04-23 14:07 | 52.55063 | 20.81445 | 4387 ft | 235 kts | 74° |
| 2026-04-23 14:07 | 52.55306 | 20.84102 | 4272 ft | 236 kts | 74° |
| 2026-04-23 14:08 | 52.55550 | 20.86766 | 4157 ft | 236 kts | 74° |
| 2026-04-23 14:08 | 52.55794 | 20.89434 | 4052 ft | 236 kts | 74° |
| 2026-04-23 14:08 | 52.55790 | 20.92165 | 3929 ft | 249 kts | 102° |
| 2026-04-23 14:08 | 52.54842 | 20.94563 | 3824 ft | 258 kts | 141° |
| 2026-04-23 14:09 | 52.53196 | 20.95669 | 3711 ft | 257 kts | 172° |
| 2026-04-23 14:09 | 52.51427 | 20.96070 | 3595 ft | 255 kts | 175° |
| 2026-04-23 14:09 | 52.49729 | 20.95770 | 3366 ft | 245 kts | 210° |
| 2026-04-23 14:09 | 52.48432 | 20.94124 | 3219 ft | 225 kts | 238° |
| 2026-04-23 14:10 | 52.47695 | 20.92049 | 3056 ft | 204 kts | 258° |
| 2026-04-23 14:10 | 52.47413 | 20.89911 | 2995 ft | 182 kts | 270° |
| 2026-04-23 14:10 | 52.47251 | 20.87927 | 2995 ft | 174 kts | 271° |
| 2026-04-23 14:10 | 52.47080 | 20.85946 | 2982 ft | 175 kts | 270° |
| 2026-04-23 14:11 | 52.46899 | 20.83937 | 2716 ft | 181 kts | 270° |
| 2026-04-23 14:11 | 52.46707 | 20.81922 | 2459 ft | 176 kts | 270° |
| 2026-04-23 14:11 | 52.46521 | 20.79992 | 2198 ft | 166 kts | 270° |
| 2026-04-23 14:11 | 52.46350 | 20.78214 | 1979 ft | 154 kts | 271° |
| 2026-04-23 14:12 | 52.46189 | 20.76487 | 1732 ft | 152 kts | 270° |
| 2026-04-23 14:12 | 52.46029 | 20.74785 | 1483 ft | 149 kts | 270° |
| 2026-04-23 14:12 | 52.45869 | 20.73086 | 1281 ft | 152 kts | 269° |
| 2026-04-23 14:12 | 52.45691 | 20.71360 | 976 ft | 155 kts | 268° |
| 2026-04-23 14:13 | 52.45538 | 20.69591 | 668 ft | 157 kts | 266° |
| 2026-04-23 14:13 | 52.45365 | 20.67825 | 455 ft | 156 kts | 269° |
| 2026-04-23 14:13 | 52.45205 | 20.66096 | 338 ft | 148 kts | 264° |
| 2026-04-23 14:13 | 52.45078 | 20.64730 | 333 ft | 89 kts | 261° |
| 2026-04-23 14:14 | 52.45007 | 20.63966 | 335 ft | 60 kts | 262° |
| 2026-04-23 14:14 | 52.44965 | 20.63517 | 334 ft | 18 kts | 261° |
| 2026-04-23 14:14 | 52.44909 | 20.63398 | 337 ft | 14 kts | 191° |
| 2026-04-23 14:14 | 52.44815 | 20.63411 | 332 ft | 13 kts | 172° |
| 2026-04-23 14:15 | 52.44725 | 20.63435 | 335 ft | 13 kts | 169° |
| 2026-04-23 14:15 | 52.44641 | 20.63474 | 337 ft | 13 kts | 140° |
| 2026-04-23 14:15 | 52.44636 | 20.63608 | 336 ft | 12 kts | 80° |
| 2026-04-23 14:15 | 52.44650 | 20.63749 | 332 ft | 14 kts | 81° |
| 2026-04-23 14:16 | 52.44666 | 20.63924 | 333 ft | 17 kts | 82° |
| 2026-04-23 14:16 | 52.44683 | 20.64119 | 336 ft | 17 kts | 82° |
| 2026-04-23 14:16 | 52.44702 | 20.64305 | 336 ft | 16 kts | 81° |
| 2026-04-23 14:16 | 52.44719 | 20.64486 | 337 ft | 16 kts | 82° |
| 2026-04-23 14:17 | 52.44735 | 20.64661 | 337 ft | 15 kts | 80° |
| 2026-04-23 14:17 | 52.44752 | 20.64828 | 332 ft | 15 kts | 81° |
| 2026-04-23 14:17 | 52.44767 | 20.64987 | 335 ft | 14 kts | 81° |
| 2026-04-23 14:17 | 52.44781 | 20.65137 | 335 ft | 8 kts | 81° |
| 2026-04-23 14:18 | 52.44773 | 20.65195 | 333 ft | 6 kts | 157° |
| 2026-04-23 14:18 | 52.44739 | 20.65180 | 334 ft | 0 kts | 203° |